sensor_id;sensor_type;location;lat;lon;timestamp;P1;durP1;ratioP1;P2;durP2;ratioP2
26253;SDS011;53339;51.378;0.094;2022-09-13T00:00:45;4.93;;;2.63;;
26253;SDS011;53339;51.378;0.094;2022-09-13T00:03:16;6.32;;;3.80;;
26253;SDS011;53339;51.378;0.094;2022-09-13T00:05:44;9.13;;;4.50;;
26253;SDS011;53339;51.378;0.094;2022-09-13T00:08:11;6.22;;;2.88;;
26253;SDS011;53339;51.378;0.094;2022-09-13T00:10:40;6.90;;;5.45;;
26253;SDS011;53339;51.378;0.094;2022-09-13T00:13:09;8.05;;;3.65;;
26253;SDS011;53339;51.378;0.094;2022-09-13T00:15:42;9.13;;;3.30;;
26253;SDS011;53339;51.378;0.094;2022-09-13T00:18:14;5.90;;;4.65;;
26253;SDS011;53339;51.378;0.094;2022-09-13T00:20:42;8.15;;;2.78;;
26253;SDS011;53339;51.378;0.094;2022-09-13T00:23:10;7.05;;;4.57;;
26253;SDS011;53339;51.378;0.094;2022-09-13T00:25:38;6.38;;;4.53;;
26253;SDS011;53339;51.378;0.094;2022-09-13T00:28:07;6.80;;;4.57;;
26253;SDS011;53339;51.378;0.094;2022-09-13T00:30:34;8.52;;;5.53;;
26253;SDS011;53339;51.378;0.094;2022-09-13T00:33:02;7.22;;;4.93;;
26253;SDS011;53339;51.378;0.094;2022-09-13T00:35:30;10.52;;;4.68;;
26253;SDS011;53339;51.378;0.094;2022-09-13T00:37:59;8.07;;;5.13;;
26253;SDS011;53339;51.378;0.094;2022-09-13T00:40:27;6.60;;;4.50;;
26253;SDS011;53339;51.378;0.094;2022-09-13T00:42:56;7.25;;;5.00;;
26253;SDS011;53339;51.378;0.094;2022-09-13T00:45:24;6.90;;;3.45;;
26253;SDS011;53339;51.378;0.094;2022-09-13T00:48:01;9.02;;;4.88;;
26253;SDS011;53339;51.378;0.094;2022-09-13T00:53:11;8.75;;;5.28;;
26253;SDS011;53339;51.378;0.094;2022-09-13T00:56:00;6.90;;;4.38;;
26253;SDS011;53339;51.378;0.094;2022-09-13T00:58:33;8.25;;;5.07;;
26253;SDS011;53339;51.378;0.094;2022-09-13T01:01:05;8.00;;;4.80;;
26253;SDS011;53339;51.378;0.094;2022-09-13T01:03:36;7.10;;;5.80;;
26253;SDS011;53339;51.378;0.094;2022-09-13T01:06:07;9.35;;;5.78;;
26253;SDS011;53339;51.378;0.094;2022-09-13T01:08:42;7.57;;;4.68;;
26253;SDS011;53339;51.378;0.094;2022-09-13T01:11:15;8.23;;;4.93;;
26253;SDS011;53339;51.378;0.094;2022-09-13T01:14:05;7.45;;;3.33;;
26253;SDS011;53339;51.378;0.094;2022-09-13T01:16:34;8.68;;;4.97;;
26253;SDS011;53339;51.378;0.094;2022-09-13T01:19:02;8.13;;;3.22;;
26253;SDS011;53339;51.378;0.094;2022-09-13T01:43:55;8.68;;;4.10;;
26253;SDS011;53339;51.378;0.094;2022-09-13T01:49:26;7.82;;;4.93;;
26253;SDS011;53339;51.378;0.094;2022-09-13T01:58:04;8.30;;;5.22;;
26253;SDS011;53339;51.378;0.094;2022-09-13T02:00:55;7.63;;;3.78;;
26253;SDS011;53339;51.378;0.094;2022-09-13T02:03:36;7.10;;;4.70;;
26253;SDS011;53339;51.378;0.094;2022-09-13T02:06:10;7.70;;;4.72;;
26253;SDS011;53339;51.378;0.094;2022-09-13T02:08:42;6.25;;;4.45;;
26253;SDS011;53339;51.378;0.094;2022-09-13T02:11:15;8.07;;;4.82;;
26253;SDS011;53339;51.378;0.094;2022-09-13T02:13:48;7.75;;;4.65;;
26253;SDS011;53339;51.378;0.094;2022-09-13T02:16:27;5.45;;;3.17;;
26253;SDS011;53339;51.378;0.094;2022-09-13T02:19:20;7.82;;;5.22;;
26253;SDS011;53339;51.378;0.094;2022-09-13T02:21:57;8.57;;;4.25;;
26253;SDS011;53339;51.378;0.094;2022-09-13T02:24:28;5.85;;;4.25;;
26253;SDS011;53339;51.378;0.094;2022-09-13T02:26:58;5.35;;;3.85;;
26253;SDS011;53339;51.378;0.094;2022-09-13T02:29:41;6.53;;;3.63;;
26253;SDS011;53339;51.378;0.094;2022-09-13T02:32:15;7.80;;;4.95;;
26253;SDS011;53339;51.378;0.094;2022-09-13T02:34:54;7.60;;;4.40;;
26253;SDS011;53339;51.378;0.094;2022-09-13T02:37:27;9.05;;;5.45;;
26253;SDS011;53339;51.378;0.094;2022-09-13T02:40:02;6.53;;;4.38;;
26253;SDS011;53339;51.378;0.094;2022-09-13T02:42:46;7.30;;;4.60;;
26253;SDS011;53339;51.378;0.094;2022-09-13T02:45:20;6.78;;;4.88;;
26253;SDS011;53339;51.378;0.094;2022-09-13T02:47:58;9.45;;;5.30;;
26253;SDS011;53339;51.378;0.094;2022-09-13T02:50:44;7.32;;;3.85;;
26253;SDS011;53339;51.378;0.094;2022-09-13T02:56:03;7.13;;;4.40;;
26253;SDS011;53339;51.378;0.094;2022-09-13T02:58:45;7.20;;;4.18;;
26253;SDS011;53339;51.378;0.094;2022-09-13T03:01:23;8.30;;;4.85;;
26253;SDS011;53339;51.378;0.094;2022-09-13T03:03:51;8.13;;;5.40;;
26253;SDS011;53339;51.378;0.094;2022-09-13T03:06:26;8.05;;;4.57;;
26253;SDS011;53339;51.378;0.094;2022-09-13T03:08:55;7.55;;;6.22;;
26253;SDS011;53339;51.378;0.094;2022-09-13T03:25:57;13.75;;;7.78;;
26253;SDS011;53339;51.378;0.094;2022-09-13T03:31:08;12.10;;;7.40;;
26253;SDS011;53339;51.378;0.094;2022-09-13T03:45:54;12.73;;;8.57;;
26253;SDS011;53339;51.378;0.094;2022-09-13T03:48:24;13.30;;;7.72;;
26253;SDS011;53339;51.378;0.094;2022-09-13T03:50:53;14.38;;;8.05;;
26253;SDS011;53339;51.378;0.094;2022-09-13T03:53:25;13.82;;;7.85;;
26253;SDS011;53339;51.378;0.094;2022-09-13T03:55:54;14.15;;;9.27;;
26253;SDS011;53339;51.378;0.094;2022-09-13T03:58:24;14.02;;;8.07;;
26253;SDS011;53339;51.378;0.094;2022-09-13T04:00:52;13.35;;;6.60;;
26253;SDS011;53339;51.378;0.094;2022-09-13T04:03:20;13.90;;;8.75;;
26253;SDS011;53339;51.378;0.094;2022-09-13T04:05:48;17.25;;;8.90;;
26253;SDS011;53339;51.378;0.094;2022-09-13T04:08:16;15.48;;;9.13;;
26253;SDS011;53339;51.378;0.094;2022-09-13T04:10:43;13.57;;;7.68;;
26253;SDS011;53339;51.378;0.094;2022-09-13T04:13:10;11.27;;;7.45;;
26253;SDS011;53339;51.378;0.094;2022-09-13T04:15:38;13.25;;;7.75;;
26253;SDS011;53339;51.378;0.094;2022-09-13T04:18:05;12.32;;;6.15;;
26253;SDS011;53339;51.378;0.094;2022-09-13T04:20:34;10.90;;;7.55;;
26253;SDS011;53339;51.378;0.094;2022-09-13T04:23:02;12.60;;;7.65;;
26253;SDS011;53339;51.378;0.094;2022-09-13T04:25:30;11.27;;;7.38;;
26253;SDS011;53339;51.378;0.094;2022-09-13T04:27:58;13.38;;;7.72;;
26253;SDS011;53339;51.378;0.094;2022-09-13T04:30:28;11.50;;;7.40;;
26253;SDS011;53339;51.378;0.094;2022-09-13T04:32:56;13.35;;;7.32;;
26253;SDS011;53339;51.378;0.094;2022-09-13T04:35:24;10.48;;;7.00;;
26253;SDS011;53339;51.378;0.094;2022-09-13T04:37:55;11.30;;;7.95;;
26253;SDS011;53339;51.378;0.094;2022-09-13T04:40:23;10.77;;;7.53;;
26253;SDS011;53339;51.378;0.094;2022-09-13T04:42:51;11.32;;;7.18;;
26253;SDS011;53339;51.378;0.094;2022-09-13T04:45:18;8.32;;;6.05;;
26253;SDS011;53339;51.378;0.094;2022-09-13T04:47:52;9.43;;;4.57;;
26253;SDS011;53339;51.378;0.094;2022-09-13T04:50:21;9.05;;;4.25;;
26253;SDS011;53339;51.378;0.094;2022-09-13T04:52:49;9.68;;;6.07;;
26253;SDS011;53339;51.378;0.094;2022-09-13T04:55:20;9.95;;;6.90;;
26253;SDS011;53339;51.378;0.094;2022-09-13T04:57:51;9.38;;;6.55;;
26253;SDS011;53339;51.378;0.094;2022-09-13T05:00:19;8.95;;;6.13;;
26253;SDS011;53339;51.378;0.094;2022-09-13T05:02:46;7.85;;;6.10;;
26253;SDS011;53339;51.378;0.094;2022-09-13T05:05:14;9.57;;;6.60;;
26253;SDS011;53339;51.378;0.094;2022-09-13T05:07:41;8.27;;;6.00;;
26253;SDS011;53339;51.378;0.094;2022-09-13T05:10:09;9.98;;;6.28;;
26253;SDS011;53339;51.378;0.094;2022-09-13T05:12:36;9.45;;;6.50;;
26253;SDS011;53339;51.378;0.094;2022-09-13T05:15:04;9.90;;;6.68;;
26253;SDS011;53339;51.378;0.094;2022-09-13T05:17:32;11.10;;;7.50;;
26253;SDS011;53339;51.378;0.094;2022-09-13T05:20:00;8.93;;;5.20;;
26253;SDS011;53339;51.378;0.094;2022-09-13T05:22:28;8.48;;;6.32;;
26253;SDS011;53339;51.378;0.094;2022-09-13T05:24:55;10.52;;;6.55;;
26253;SDS011;53339;51.378;0.094;2022-09-13T05:27:23;9.90;;;6.68;;
26253;SDS011;53339;51.378;0.094;2022-09-13T05:29:50;10.77;;;7.25;;
26253;SDS011;53339;51.378;0.094;2022-09-13T05:32:17;10.07;;;7.50;;
26253;SDS011;53339;51.378;0.094;2022-09-13T05:34:45;11.57;;;7.28;;
26253;SDS011;53339;51.378;0.094;2022-09-13T05:37:13;9.57;;;6.50;;
26253;SDS011;53339;51.378;0.094;2022-09-13T05:39:40;14.25;;;8.18;;
26253;SDS011;53339;51.378;0.094;2022-09-13T05:42:28;10.88;;;6.45;;
26253;SDS011;53339;51.378;0.094;2022-09-13T05:44:55;10.23;;;6.70;;
26253;SDS011;53339;51.378;0.094;2022-09-13T05:47:23;10.23;;;7.07;;
26253;SDS011;53339;51.378;0.094;2022-09-13T05:49:50;11.05;;;6.88;;
26253;SDS011;53339;51.378;0.094;2022-09-13T05:52:35;8.32;;;5.93;;
26253;SDS011;53339;51.378;0.094;2022-09-13T05:55:03;9.63;;;7.07;;
26253;SDS011;53339;51.378;0.094;2022-09-13T05:57:30;12.48;;;7.38;;
26253;SDS011;53339;51.378;0.094;2022-09-13T05:59:58;10.55;;;6.88;;
26253;SDS011;53339;51.378;0.094;2022-09-13T06:02:25;11.93;;;7.32;;
26253;SDS011;53339;51.378;0.094;2022-09-13T06:04:52;9.20;;;7.13;;
26253;SDS011;53339;51.378;0.094;2022-09-13T06:07:20;9.48;;;6.72;;
26253;SDS011;53339;51.378;0.094;2022-09-13T06:09:47;11.38;;;5.43;;
26253;SDS011;53339;51.378;0.094;2022-09-13T06:12:15;9.95;;;6.63;;
26253;SDS011;53339;51.378;0.094;2022-09-13T06:14:42;14.65;;;7.60;;
26253;SDS011;53339;51.378;0.094;2022-09-13T06:17:10;9.68;;;6.57;;
26253;SDS011;53339;51.378;0.094;2022-09-13T06:19:37;10.02;;;7.20;;
26253;SDS011;53339;51.378;0.094;2022-09-13T06:22:05;11.10;;;7.07;;
26253;SDS011;53339;51.378;0.094;2022-09-13T06:24:32;9.88;;;7.00;;
26253;SDS011;53339;51.378;0.094;2022-09-13T06:27:03;10.50;;;7.13;;
26253;SDS011;53339;51.378;0.094;2022-09-13T06:29:31;10.73;;;7.40;;
26253;SDS011;53339;51.378;0.094;2022-09-13T06:31:59;11.20;;;6.88;;
26253;SDS011;53339;51.378;0.094;2022-09-13T06:34:26;9.27;;;6.18;;
26253;SDS011;53339;51.378;0.094;2022-09-13T06:36:57;10.52;;;7.18;;
26253;SDS011;53339;51.378;0.094;2022-09-13T06:39:24;9.75;;;6.93;;
26253;SDS011;53339;51.378;0.094;2022-09-13T06:41:52;8.95;;;6.47;;
26253;SDS011;53339;51.378;0.094;2022-09-13T06:44:30;11.23;;;4.60;;
26253;SDS011;53339;51.378;0.094;2022-09-13T06:46:57;9.88;;;6.68;;
26253;SDS011;53339;51.378;0.094;2022-09-13T06:49:25;11.30;;;5.90;;
26253;SDS011;53339;51.378;0.094;2022-09-13T06:51:54;9.93;;;6.07;;
26253;SDS011;53339;51.378;0.094;2022-09-13T06:54:22;12.20;;;7.53;;
26253;SDS011;53339;51.378;0.094;2022-09-13T06:56:49;11.15;;;5.95;;
26253;SDS011;53339;51.378;0.094;2022-09-13T06:59:17;9.07;;;5.57;;
26253;SDS011;53339;51.378;0.094;2022-09-13T07:01:44;9.60;;;6.30;;
26253;SDS011;53339;51.378;0.094;2022-09-13T07:04:14;11.57;;;5.97;;
26253;SDS011;53339;51.378;0.094;2022-09-13T07:06:43;10.07;;;6.55;;
26253;SDS011;53339;51.378;0.094;2022-09-13T07:09:15;10.38;;;7.43;;
26253;SDS011;53339;51.378;0.094;2022-09-13T07:11:48;13.65;;;7.85;;
26253;SDS011;53339;51.378;0.094;2022-09-13T07:14:17;10.23;;;7.60;;
26253;SDS011;53339;51.378;0.094;2022-09-13T07:16:49;12.13;;;6.85;;
26253;SDS011;53339;51.378;0.094;2022-09-13T07:19:18;9.40;;;5.38;;
26253;SDS011;53339;51.378;0.094;2022-09-13T07:21:48;11.85;;;8.02;;
26253;SDS011;53339;51.378;0.094;2022-09-13T07:24:16;11.57;;;7.57;;
26253;SDS011;53339;51.378;0.094;2022-09-13T07:26:45;13.90;;;7.43;;
26253;SDS011;53339;51.378;0.094;2022-09-13T07:29:14;12.27;;;7.25;;
26253;SDS011;53339;51.378;0.094;2022-09-13T07:31:49;9.85;;;7.07;;
26253;SDS011;53339;51.378;0.094;2022-09-13T07:34:21;10.88;;;6.22;;
26253;SDS011;53339;51.378;0.094;2022-09-13T07:36:49;8.57;;;5.93;;
26253;SDS011;53339;51.378;0.094;2022-09-13T07:39:18;9.23;;;6.15;;
26253;SDS011;53339;51.378;0.094;2022-09-13T07:41:48;8.52;;;5.63;;
26253;SDS011;53339;51.378;0.094;2022-09-13T07:44:17;10.23;;;5.30;;
26253;SDS011;53339;51.378;0.094;2022-09-13T07:46:44;8.45;;;5.88;;
26253;SDS011;53339;51.378;0.094;2022-09-13T07:49:13;7.70;;;4.55;;
26253;SDS011;53339;51.378;0.094;2022-09-13T07:51:42;10.77;;;6.13;;
26253;SDS011;53339;51.378;0.094;2022-09-13T07:54:12;7.32;;;5.10;;
26253;SDS011;53339;51.378;0.094;2022-09-13T07:56:41;8.32;;;5.15;;
26253;SDS011;53339;51.378;0.094;2022-09-13T07:59:10;8.95;;;4.30;;
26253;SDS011;53339;51.378;0.094;2022-09-13T08:01:49;9.32;;;4.90;;
26253;SDS011;53339;51.378;0.094;2022-09-13T08:04:18;9.13;;;5.35;;
26253;SDS011;53339;51.378;0.094;2022-09-13T08:06:49;6.82;;;3.25;;
26253;SDS011;53339;51.378;0.094;2022-09-13T08:09:17;10.70;;;5.22;;
26253;SDS011;53339;51.378;0.094;2022-09-13T08:11:46;8.43;;;4.97;;
26253;SDS011;53339;51.378;0.094;2022-09-13T08:14:16;7.65;;;4.65;;
26253;SDS011;53339;51.378;0.094;2022-09-13T08:16:44;7.93;;;4.75;;
26253;SDS011;53339;51.378;0.094;2022-09-13T08:19:13;7.97;;;4.82;;
26253;SDS011;53339;51.378;0.094;2022-09-13T08:21:43;8.40;;;4.38;;
26253;SDS011;53339;51.378;0.094;2022-09-13T08:24:15;7.40;;;4.93;;
26253;SDS011;53339;51.378;0.094;2022-09-13T08:29:14;7.15;;;4.63;;
26253;SDS011;53339;51.378;0.094;2022-09-13T08:31:42;7.18;;;4.75;;
26253;SDS011;53339;51.378;0.094;2022-09-13T08:34:11;10.02;;;5.18;;
26253;SDS011;53339;51.378;0.094;2022-09-13T08:36:41;7.45;;;4.63;;
26253;SDS011;53339;51.378;0.094;2022-09-13T08:39:09;6.85;;;4.80;;
26253;SDS011;53339;51.378;0.094;2022-09-13T08:44:29;10.63;;;5.68;;
26253;SDS011;53339;51.378;0.094;2022-09-13T08:49:45;9.63;;;6.35;;
26253;SDS011;53339;51.378;0.094;2022-09-13T08:52:27;9.02;;;6.20;;
26253;SDS011;53339;51.378;0.094;2022-09-13T08:54:59;10.82;;;6.30;;
26253;SDS011;53339;51.378;0.094;2022-09-13T08:58:35;11.07;;;6.05;;
26253;SDS011;53339;51.378;0.094;2022-09-13T09:00:56;9.00;;;5.43;;
26253;SDS011;53339;51.378;0.094;2022-09-13T09:03:40;11.45;;;6.45;;
26253;SDS011;53339;51.378;0.094;2022-09-13T09:06:15;13.05;;;6.45;;
26253;SDS011;53339;51.378;0.094;2022-09-13T09:11:25;16.13;;;8.05;;
26253;SDS011;53339;51.378;0.094;2022-09-13T09:14:14;12.70;;;6.97;;
26253;SDS011;53339;51.378;0.094;2022-09-13T09:16:50;11.85;;;7.53;;
26253;SDS011;53339;51.378;0.094;2022-09-13T09:22:17;16.30;;;7.43;;
26253;SDS011;53339;51.378;0.094;2022-09-13T09:24:49;10.57;;;5.60;;
26253;SDS011;53339;51.378;0.094;2022-09-13T09:27:20;14.55;;;8.00;;
26253;SDS011;53339;51.378;0.094;2022-09-13T09:29:52;12.15;;;7.05;;
26253;SDS011;53339;51.378;0.094;2022-09-13T09:38:35;11.13;;;6.65;;
26253;SDS011;53339;51.378;0.094;2022-09-13T09:41:26;12.13;;;7.28;;
26253;SDS011;53339;51.378;0.094;2022-09-13T09:44:05;10.98;;;5.57;;
26253;SDS011;53339;51.378;0.094;2022-09-13T09:46:44;10.00;;;6.35;;
26253;SDS011;53339;51.378;0.094;2022-09-13T09:49:37;12.75;;;7.35;;
26253;SDS011;53339;51.378;0.094;2022-09-13T09:52:30;11.85;;;7.57;;
26253;SDS011;53339;51.378;0.094;2022-09-13T10:00:16;12.25;;;7.10;;
26253;SDS011;53339;51.378;0.094;2022-09-13T10:02:44;13.93;;;7.70;;
26253;SDS011;53339;51.378;0.094;2022-09-13T10:07:50;11.05;;;8.50;;
26253;SDS011;53339;51.378;0.094;2022-09-13T10:10:24;12.02;;;6.60;;
26253;SDS011;53339;51.378;0.094;2022-09-13T10:12:59;18.17;;;8.30;;
26253;SDS011;53339;51.378;0.094;2022-09-13T10:15:28;14.15;;;7.20;;
26253;SDS011;53339;51.378;0.094;2022-09-13T10:18:01;11.57;;;5.78;;
26253;SDS011;53339;51.378;0.094;2022-09-13T10:23:32;11.95;;;7.10;;
26253;SDS011;53339;51.378;0.094;2022-09-13T10:28:34;11.25;;;7.15;;
26253;SDS011;53339;51.378;0.094;2022-09-13T10:31:10;12.52;;;6.95;;
26253;SDS011;53339;51.378;0.094;2022-09-13T10:33:45;16.88;;;8.40;;
26253;SDS011;53339;51.378;0.094;2022-09-13T10:36:42;13.02;;;6.28;;
26253;SDS011;53339;51.378;0.094;2022-09-13T10:39:19;19.40;;;8.32;;
26253;SDS011;53339;51.378;0.094;2022-09-13T10:41:53;15.77;;;8.52;;
26253;SDS011;53339;51.378;0.094;2022-09-13T10:44:31;15.65;;;9.30;;
26253;SDS011;53339;51.378;0.094;2022-09-13T10:47:36;17.02;;;8.68;;
26253;SDS011;53339;51.378;0.094;2022-09-13T10:52:49;16.58;;;9.35;;
26253;SDS011;53339;51.378;0.094;2022-09-13T11:00:34;16.27;;;8.68;;
26253;SDS011;53339;51.378;0.094;2022-09-13T11:05:56;18.23;;;10.88;;
26253;SDS011;53339;51.378;0.094;2022-09-13T11:08:50;17.45;;;9.40;;
26253;SDS011;53339;51.378;0.094;2022-09-13T11:11:39;17.17;;;9.05;;
26253;SDS011;53339;51.378;0.094;2022-09-13T11:24:59;17.60;;;7.93;;
26253;SDS011;53339;51.378;0.094;2022-09-13T11:30:21;14.68;;;9.27;;
26253;SDS011;53339;51.378;0.094;2022-09-13T11:32:59;16.65;;;10.05;;
26253;SDS011;53339;51.378;0.094;2022-09-13T11:36:16;15.88;;;9.23;;
26253;SDS011;53339;51.378;0.094;2022-09-13T11:38:51;17.80;;;9.98;;
26253;SDS011;53339;51.378;0.094;2022-09-13T11:50:03;13.82;;;7.20;;
26253;SDS011;53339;51.378;0.094;2022-09-13T11:55:45;14.63;;;8.43;;
26253;SDS011;53339;51.378;0.094;2022-09-13T11:58:18;12.45;;;6.68;;
26253;SDS011;53339;51.378;0.094;2022-09-13T12:00:58;15.10;;;8.50;;
26253;SDS011;53339;51.378;0.094;2022-09-13T12:06:24;12.40;;;8.00;;
26253;SDS011;53339;51.378;0.094;2022-09-13T12:11:51;10.35;;;6.07;;
26253;SDS011;53339;51.378;0.094;2022-09-13T12:14:22;11.80;;;7.53;;
26253;SDS011;53339;51.378;0.094;2022-09-13T12:16:56;12.30;;;7.97;;
26253;SDS011;53339;51.378;0.094;2022-09-13T12:20:04;13.00;;;8.85;;
26253;SDS011;53339;51.378;0.094;2022-09-13T12:22:24;12.85;;;7.95;;
26253;SDS011;53339;51.378;0.094;2022-09-13T12:24:57;13.05;;;7.65;;
26253;SDS011;53339;51.378;0.094;2022-09-13T12:30:19;11.95;;;8.25;;
26253;SDS011;53339;51.378;0.094;2022-09-13T12:32:49;12.35;;;8.25;;
26253;SDS011;53339;51.378;0.094;2022-09-13T12:35:31;11.95;;;8.10;;
26253;SDS011;53339;51.378;0.094;2022-09-13T12:38:24;11.80;;;8.13;;
26253;SDS011;53339;51.378;0.094;2022-09-13T12:41:13;10.02;;;6.72;;
26253;SDS011;53339;51.378;0.094;2022-09-13T12:46:54;12.73;;;7.35;;
26253;SDS011;53339;51.378;0.094;2022-09-13T12:49:47;12.05;;;7.43;;
26253;SDS011;53339;51.378;0.094;2022-09-13T13:01:23;9.95;;;7.00;;
26253;SDS011;53339;51.378;0.094;2022-09-13T13:06:34;11.45;;;6.60;;
26253;SDS011;53339;51.378;0.094;2022-09-13T13:11:45;8.60;;;6.43;;
26253;SDS011;53339;51.378;0.094;2022-09-13T13:23:30;8.35;;;5.30;;
26253;SDS011;53339;51.378;0.094;2022-09-13T13:28:47;10.20;;;6.13;;
26253;SDS011;53339;51.378;0.094;2022-09-13T13:31:38;8.40;;;6.50;;
26253;SDS011;53339;51.378;0.094;2022-09-13T13:47:39;7.85;;;4.57;;
26253;SDS011;53339;51.378;0.094;2022-09-13T13:49:48;8.23;;;5.50;;
26253;SDS011;53339;51.378;0.094;2022-09-13T13:55:38;7.32;;;4.20;;
26253;SDS011;53339;51.378;0.094;2022-09-13T14:00:47;6.03;;;4.80;;
26253;SDS011;53339;51.378;0.094;2022-09-13T14:08:56;6.72;;;4.10;;
26253;SDS011;53339;51.378;0.094;2022-09-13T14:14:45;6.75;;;5.00;;
26253;SDS011;53339;51.378;0.094;2022-09-13T14:25:45;7.00;;;2.67;;
26253;SDS011;53339;51.378;0.094;2022-09-13T14:28:19;6.63;;;4.30;;
26253;SDS011;53339;51.378;0.094;2022-09-13T14:33:29;7.28;;;3.85;;
26253;SDS011;53339;51.378;0.094;2022-09-13T14:36:03;5.95;;;3.58;;
26253;SDS011;53339;51.378;0.094;2022-09-13T14:38:45;9.10;;;4.00;;
26253;SDS011;53339;51.378;0.094;2022-09-13T14:41:21;7.95;;;4.13;;
26253;SDS011;53339;51.378;0.094;2022-09-13T14:44:07;5.68;;;3.00;;
26253;SDS011;53339;51.378;0.094;2022-09-13T14:46:51;6.10;;;4.05;;
26253;SDS011;53339;51.378;0.094;2022-09-13T14:49:45;4.75;;;3.75;;
26253;SDS011;53339;51.378;0.094;2022-09-13T14:52:18;7.18;;;3.65;;
26253;SDS011;53339;51.378;0.094;2022-09-13T14:55:01;5.78;;;2.17;;
26253;SDS011;53339;51.378;0.094;2022-09-13T14:57:33;6.35;;;3.88;;
26253;SDS011;53339;51.378;0.094;2022-09-13T15:00:06;5.85;;;3.38;;
26253;SDS011;53339;51.378;0.094;2022-09-13T15:03:00;3.70;;;3.30;;
26253;SDS011;53339;51.378;0.094;2022-09-13T15:05:36;5.07;;;1.55;;
26253;SDS011;53339;51.378;0.094;2022-09-13T15:10:55;5.18;;;3.10;;
26253;SDS011;53339;51.378;0.094;2022-09-13T15:13:23;5.53;;;1.42;;
26253;SDS011;53339;51.378;0.094;2022-09-13T15:15:51;7.03;;;4.22;;
26253;SDS011;53339;51.378;0.094;2022-09-13T15:23:18;8.45;;;4.05;;
26253;SDS011;53339;51.378;0.094;2022-09-13T15:25:51;5.75;;;2.85;;
26253;SDS011;53339;51.378;0.094;2022-09-13T15:28:33;4.47;;;2.55;;
26253;SDS011;53339;51.378;0.094;2022-09-13T15:31:21;6.70;;;2.90;;
26253;SDS011;53339;51.378;0.094;2022-09-13T15:37:27;6.53;;;3.03;;
26253;SDS011;53339;51.378;0.094;2022-09-13T15:39:47;6.65;;;1.92;;
26253;SDS011;53339;51.378;0.094;2022-09-13T15:42:17;8.00;;;3.28;;
26253;SDS011;53339;51.378;0.094;2022-09-13T15:44:44;4.63;;;1.60;;
26253;SDS011;53339;51.378;0.094;2022-09-13T15:47:16;5.53;;;2.80;;
26253;SDS011;53339;51.378;0.094;2022-09-13T15:49:46;9.20;;;3.47;;
26253;SDS011;53339;51.378;0.094;2022-09-13T15:52:18;7.32;;;3.17;;
26253;SDS011;53339;51.378;0.094;2022-09-13T15:54:47;4.53;;;3.10;;
26253;SDS011;53339;51.378;0.094;2022-09-13T15:57:17;5.10;;;3.42;;
26253;SDS011;53339;51.378;0.094;2022-09-13T15:59:48;6.65;;;3.17;;
26253;SDS011;53339;51.378;0.094;2022-09-13T16:02:21;10.15;;;3.22;;
26253;SDS011;53339;51.378;0.094;2022-09-13T16:04:51;5.35;;;3.65;;
26253;SDS011;53339;51.378;0.094;2022-09-13T16:07:19;6.15;;;3.33;;
26253;SDS011;53339;51.378;0.094;2022-09-13T16:09:48;5.30;;;3.55;;
26253;SDS011;53339;51.378;0.094;2022-09-13T16:12:15;5.68;;;3.05;;
26253;SDS011;53339;51.378;0.094;2022-09-13T16:14:44;7.95;;;2.83;;
26253;SDS011;53339;51.378;0.094;2022-09-13T16:17:20;6.18;;;3.60;;
26253;SDS011;53339;51.378;0.094;2022-09-13T16:19:50;5.78;;;2.38;;
26253;SDS011;53339;51.378;0.094;2022-09-13T16:22:19;6.15;;;3.00;;
26253;SDS011;53339;51.378;0.094;2022-09-13T16:24:47;7.20;;;3.13;;
26253;SDS011;53339;51.378;0.094;2022-09-13T16:27:15;9.50;;;3.47;;
26253;SDS011;53339;51.378;0.094;2022-09-13T16:29:44;6.47;;;3.33;;
26253;SDS011;53339;51.378;0.094;2022-09-13T16:32:12;5.25;;;2.47;;
26253;SDS011;53339;51.378;0.094;2022-09-13T16:34:39;5.30;;;2.72;;
26253;SDS011;53339;51.378;0.094;2022-09-13T16:37:07;8.38;;;3.08;;
26253;SDS011;53339;51.378;0.094;2022-09-13T16:42:05;4.80;;;3.05;;
26253;SDS011;53339;51.378;0.094;2022-09-13T16:44:32;8.65;;;3.15;;
26253;SDS011;53339;51.378;0.094;2022-09-13T16:46:59;5.90;;;3.17;;
26253;SDS011;53339;51.378;0.094;2022-09-13T16:49:27;5.68;;;3.40;;
26253;SDS011;53339;51.378;0.094;2022-09-13T16:51:55;4.30;;;3.72;;
26253;SDS011;53339;51.378;0.094;2022-09-13T16:54:25;7.63;;;3.55;;
26253;SDS011;53339;51.378;0.094;2022-09-13T16:56:56;5.75;;;3.50;;
26253;SDS011;53339;51.378;0.094;2022-09-13T16:59:24;7.20;;;1.20;;
26253;SDS011;53339;51.378;0.094;2022-09-13T17:01:52;5.97;;;3.47;;
26253;SDS011;53339;51.378;0.094;2022-09-13T17:04:19;8.95;;;4.50;;
26253;SDS011;53339;51.378;0.094;2022-09-13T17:06:47;6.10;;;3.55;;
26253;SDS011;53339;51.378;0.094;2022-09-13T17:09:15;7.10;;;2.55;;
26253;SDS011;53339;51.378;0.094;2022-09-13T17:11:43;9.77;;;3.05;;
26253;SDS011;53339;51.378;0.094;2022-09-13T17:14:11;5.30;;;3.42;;
26253;SDS011;53339;51.378;0.094;2022-09-13T17:16:44;7.55;;;1.77;;
26253;SDS011;53339;51.378;0.094;2022-09-13T17:19:21;9.05;;;4.68;;
26253;SDS011;53339;51.378;0.094;2022-09-13T17:21:53;8.27;;;4.13;;
26253;SDS011;53339;51.378;0.094;2022-09-13T17:24:23;11.45;;;6.60;;
26253;SDS011;53339;51.378;0.094;2022-09-13T17:29:22;17.95;;;11.77;;
26253;SDS011;53339;51.378;0.094;2022-09-13T17:31:51;17.95;;;13.00;;
26253;SDS011;53339;51.378;0.094;2022-09-13T17:34:18;19.83;;;10.65;;
26253;SDS011;53339;51.378;0.094;2022-09-13T17:36:46;18.40;;;13.68;;
26253;SDS011;53339;51.378;0.094;2022-09-13T17:39:17;22.65;;;13.43;;
26253;SDS011;53339;51.378;0.094;2022-09-13T17:41:45;16.40;;;11.40;;
26253;SDS011;53339;51.378;0.094;2022-09-13T17:44:14;17.83;;;11.07;;
26253;SDS011;53339;51.378;0.094;2022-09-13T17:46:42;12.48;;;7.65;;
26253;SDS011;53339;51.378;0.094;2022-09-13T17:49:10;9.98;;;5.07;;
26253;SDS011;53339;51.378;0.094;2022-09-13T17:51:37;6.80;;;3.20;;
26253;SDS011;53339;51.378;0.094;2022-09-13T17:54:05;7.93;;;2.97;;
26253;SDS011;53339;51.378;0.094;2022-09-13T17:56:36;8.05;;;4.07;;
26253;SDS011;53339;51.378;0.094;2022-09-13T18:01:44;7.85;;;4.13;;
26253;SDS011;53339;51.378;0.094;2022-09-13T18:04:13;6.70;;;3.30;;
26253;SDS011;53339;51.378;0.094;2022-09-13T18:06:41;7.47;;;4.35;;
26253;SDS011;53339;51.378;0.094;2022-09-13T18:09:09;7.15;;;3.70;;
26253;SDS011;53339;51.378;0.094;2022-09-13T18:11:37;6.88;;;3.90;;
26253;SDS011;53339;51.378;0.094;2022-09-13T18:14:06;6.88;;;3.25;;
26253;SDS011;53339;51.378;0.094;2022-09-13T18:16:38;7.22;;;3.42;;
26253;SDS011;53339;51.378;0.094;2022-09-13T18:19:05;5.97;;;2.92;;
26253;SDS011;53339;51.378;0.094;2022-09-13T18:21:33;6.05;;;1.85;;
26253;SDS011;53339;51.378;0.094;2022-09-13T18:24:01;6.40;;;4.30;;
26253;SDS011;53339;51.378;0.094;2022-09-13T18:26:29;5.32;;;4.53;;
26253;SDS011;53339;51.378;0.094;2022-09-13T18:29:01;9.02;;;3.28;;
26253;SDS011;53339;51.378;0.094;2022-09-13T18:31:35;8.13;;;2.35;;
26253;SDS011;53339;51.378;0.094;2022-09-13T18:34:04;5.47;;;3.65;;
26253;SDS011;53339;51.378;0.094;2022-09-13T18:36:34;7.15;;;3.50;;
26253;SDS011;53339;51.378;0.094;2022-09-13T18:39:02;7.47;;;4.00;;
26253;SDS011;53339;51.378;0.094;2022-09-13T18:41:37;8.55;;;2.20;;
26253;SDS011;53339;51.378;0.094;2022-09-13T18:44:11;7.35;;;3.80;;
26253;SDS011;53339;51.378;0.094;2022-09-13T18:46:40;7.90;;;4.15;;
26253;SDS011;53339;51.378;0.094;2022-09-13T18:49:08;7.78;;;4.38;;
26253;SDS011;53339;51.378;0.094;2022-09-13T18:51:40;8.68;;;4.20;;
26253;SDS011;53339;51.378;0.094;2022-09-13T18:54:10;6.53;;;3.88;;
26253;SDS011;53339;51.378;0.094;2022-09-13T18:56:40;9.27;;;4.18;;
26253;SDS011;53339;51.378;0.094;2022-09-13T18:59:08;8.43;;;2.17;;
26253;SDS011;53339;51.378;0.094;2022-09-13T19:01:38;13.43;;;4.90;;
26253;SDS011;53339;51.378;0.094;2022-09-13T19:04:11;6.78;;;4.55;;